createdAt,value
2023-04-27T00:01:45.208Z,46.20
2023-04-27T00:06:41.545Z,46.40
2023-04-27T00:11:35.872Z,46.50
2023-04-27T00:16:29.948Z,46.50
2023-04-27T00:26:18.623Z,46.80
2023-04-27T00:28:48.816Z,46.80
2023-04-27T00:31:15.853Z,46.70
2023-04-27T00:36:09.982Z,46.80
2023-04-27T00:38:36.975Z,46.70
2023-04-27T00:41:07.358Z,46.50
2023-04-27T00:43:45.813Z,46.20
2023-04-27T00:46:14.337Z,46.70
2023-04-27T00:48:42.150Z,46.80
2023-04-27T00:53:37.586Z,46.90
2023-04-27T00:56:05.901Z,47.30
2023-04-27T01:01:01.222Z,47.20
2023-04-27T01:05:56.853Z,47.40
2023-04-27T01:23:16.657Z,47.60
2023-04-27T01:25:44.049Z,47.90
2023-04-27T01:45:23.417Z,48.10
2023-04-27T01:47:53.721Z,48.20
2023-04-27T01:50:21.104Z,48.30
2023-04-27T01:55:15.424Z,48.60
2023-04-27T01:57:43.124Z,48.50
2023-04-27T02:05:42.652Z,48.60
2023-04-27T02:08:09.790Z,48.40
2023-04-27T02:13:03.953Z,48.50
2023-04-27T02:15:31.097Z,48.60
2023-04-27T02:27:48.278Z,48.60
2023-04-27T02:30:15.572Z,49.00
2023-04-27T02:37:38.301Z,49.10
2023-04-27T02:47:30.419Z,49.30
2023-04-27T03:02:13.391Z,49.60
2023-04-27T03:07:07.901Z,49.70
2023-04-27T03:16:57.919Z,50.00
2023-04-27T03:21:52.048Z,50.10
2023-04-27T03:39:05.628Z,50.50
2023-04-27T03:56:19.126Z,50.50
2023-04-27T03:58:46.850Z,50.60
2023-04-27T04:01:18.942Z,50.60
2023-04-27T04:11:10.138Z,50.70
2023-04-27T04:16:09.336Z,51.00
2023-04-27T04:18:37.327Z,51.00
2023-04-27T04:23:34.006Z,51.30
2023-04-27T04:26:02.296Z,51.40
2023-04-27T04:31:05.918Z,51.70
2023-04-27T04:33:33.353Z,51.70
2023-04-27T04:36:05.101Z,51.70
2023-04-27T04:38:34.976Z,51.80
2023-04-27T04:48:30.199Z,51.90
2023-04-27T04:55:55.993Z,52.00
2023-04-27T04:58:23.185Z,52.10
2023-04-27T05:00:59.476Z,52.10
2023-04-27T05:08:23.318Z,52.20
2023-04-27T05:10:53.975Z,52.20
2023-04-27T05:13:21.747Z,52.40
2023-04-27T05:28:10.023Z,52.30
2023-04-27T05:30:37.591Z,52.20
2023-04-27T05:33:05.245Z,52.10
2023-04-27T05:35:33.273Z,52.30
2023-04-27T05:40:28.001Z,52.20
2023-04-27T05:45:23.817Z,52.30
2023-04-27T05:47:54.923Z,52.30
2023-04-27T05:50:22.532Z,52.10
2023-04-27T06:10:07.706Z,51.70
2023-04-27T06:17:36.663Z,51.20
2023-04-27T06:20:08.054Z,51.30
2023-04-27T06:25:07.864Z,51.30
2023-04-27T06:39:53.201Z,51.50
2023-04-27T06:52:10.213Z,51.00
2023-04-27T06:57:04.747Z,50.90
2023-04-27T07:01:59.247Z,50.70
2023-04-27T07:04:26.735Z,50.70
2023-04-27T07:11:53.269Z,50.50
2023-04-27T07:16:48.082Z,50.40
2023-04-27T07:19:15.241Z,50.60
2023-04-27T07:24:09.602Z,50.60
2023-04-27T07:34:20.332Z,50.60
2023-04-27T07:56:29.449Z,50.10
2023-04-27T08:01:23.533Z,49.80
2023-04-27T08:06:19.989Z,49.70
2023-04-27T08:11:14.878Z,49.40
2023-04-27T08:16:09.493Z,49.00
2023-04-27T08:21:04.377Z,48.80
2023-04-27T08:26:00.175Z,48.60
2023-04-27T08:30:54.298Z,48.30
2023-04-27T08:38:16.126Z,48.30
2023-04-27T08:40:44.009Z,48.20
2023-04-27T08:43:10.982Z,48.10
2023-04-27T08:48:05.479Z,47.90
2023-04-27T08:50:32.620Z,47.90
2023-04-27T08:58:01.410Z,47.50
2023-04-27T09:00:42.023Z,47.40
2023-04-27T09:03:25.720Z,47.30
2023-04-27T09:06:00.688Z,47.30
2023-04-27T09:08:51.198Z,47.10
2023-04-27T09:11:35.849Z,47.10
2023-04-27T09:14:19.881Z,47.30
2023-04-27T09:16:56.311Z,47.30
2023-04-27T09:19:27.633Z,47.40
2023-04-27T09:22:11.568Z,47.20
2023-04-27T09:27:07.659Z,47.10
2023-04-27T09:29:38.711Z,47.00
2023-04-27T09:32:20.776Z,47.10
2023-04-27T09:37:15.675Z,46.80
2023-04-27T09:39:43.294Z,46.40
2023-04-27T09:42:12.156Z,46.20
2023-04-27T09:44:39.051Z,46.10
2023-04-27T09:47:07.424Z,46.30
2023-04-27T09:49:34.933Z,46.20
2023-04-27T09:52:01.812Z,46.10
2023-04-27T09:54:33.449Z,46.30
2023-04-27T09:57:05.018Z,46.30
2023-04-27T09:59:48.125Z,47.10
2023-04-27T10:05:09.521Z,46.00
2023-04-27T10:07:38.444Z,46.10
2023-04-27T10:10:05.764Z,44.00
2023-04-27T10:12:36.746Z,45.90
2023-04-27T10:15:28.011Z,46.00
2023-04-27T10:17:55.458Z,45.90
2023-04-27T10:20:37.529Z,45.80
2023-04-27T10:23:05.039Z,43.80
2023-04-27T10:25:42.729Z,45.80
2023-04-27T10:28:16.409Z,45.60
2023-04-27T10:30:46.766Z,45.90
2023-04-27T10:33:21.829Z,45.90
2023-04-27T10:35:57.792Z,45.00
2023-04-27T10:38:30.327Z,44.90
2023-04-27T10:41:05.818Z,44.80
2023-04-27T10:43:35.014Z,44.50
2023-04-27T10:46:22.021Z,45.70
2023-04-27T10:48:49.788Z,44.20
2023-04-27T10:51:20.058Z,44.60
2023-04-27T10:53:52.621Z,46.60
2023-04-27T10:56:19.533Z,44.50
2023-04-27T10:58:49.274Z,44.50
2023-04-27T11:01:29.622Z,44.70
2023-04-27T11:04:00.786Z,44.30
2023-04-27T11:06:33.329Z,44.30
2023-04-27T11:09:01.617Z,43.90
2023-04-27T11:11:28.575Z,43.30
2023-04-27T11:13:58.372Z,43.90
2023-04-27T11:16:25.283Z,43.70
2023-04-27T11:18:52.174Z,43.50
2023-04-27T11:21:20.520Z,43.20
2023-04-27T11:23:47.894Z,42.90
2023-04-27T11:26:17.432Z,42.70
2023-04-27T11:28:46.177Z,42.80
2023-04-27T11:31:13.418Z,42.80
2023-04-27T11:33:49.136Z,43.00
2023-04-27T11:36:20.210Z,42.60
2023-04-27T11:38:47.372Z,43.10
2023-04-27T11:41:14.905Z,42.90
2023-04-27T11:43:49.721Z,42.50
2023-04-27T11:46:21.315Z,42.20
2023-04-27T11:48:49.102Z,42.00
2023-04-27T11:51:16.076Z,42.00
2023-04-27T11:53:48.221Z,40.90
2023-04-27T11:58:46.268Z,41.30
2023-04-27T12:03:42.528Z,40.80
2023-04-27T12:06:27.556Z,40.30
2023-04-27T12:08:57.265Z,39.90
2023-04-27T12:11:27.939Z,39.20
2023-04-27T12:13:55.668Z,36.80
2023-04-27T12:16:23.245Z,38.90
2023-04-27T12:18:50.800Z,38.30
2023-04-27T12:21:18.358Z,38.50
2023-04-27T12:26:14.986Z,37.80
2023-04-27T12:28:42.703Z,37.50
2023-04-27T12:31:14.108Z,37.30
2023-04-27T12:33:41.506Z,37.40
2023-04-27T12:36:08.567Z,37.60
2023-04-27T12:38:35.599Z,37.70
2023-04-27T12:41:03.041Z,38.20
2023-04-27T12:43:30.200Z,37.80
2023-04-27T12:45:57.669Z,38.20
2023-04-27T12:48:24.729Z,38.10
2023-04-27T12:50:51.579Z,37.90
2023-04-27T12:53:18.821Z,37.50
2023-04-27T12:55:46.989Z,36.20
2023-04-27T12:58:14.463Z,37.00
2023-04-27T13:00:41.852Z,36.80
2023-04-27T13:03:09.012Z,36.70
2023-04-27T13:05:36.614Z,36.70
2023-04-27T13:08:03.663Z,36.40
2023-04-27T13:10:30.799Z,36.50
2023-04-27T13:12:59.649Z,36.50
2023-04-27T13:15:26.592Z,36.30
2023-04-27T13:17:54.567Z,36.80
2023-04-27T13:20:21.680Z,36.10
2023-04-27T13:22:48.682Z,35.80
2023-04-27T13:25:16.830Z,35.60
2023-04-27T13:27:43.829Z,35.20
2023-04-27T13:30:10.964Z,35.10
2023-04-27T13:32:37.959Z,34.80
2023-04-27T13:35:05.589Z,34.70
2023-04-27T13:37:32.764Z,34.70
2023-04-27T13:39:59.695Z,34.50
2023-04-27T13:42:29.650Z,34.50
2023-04-27T13:44:57.186Z,34.40
2023-04-27T13:47:24.318Z,34.20
2023-04-27T13:49:51.412Z,34.00
2023-04-27T13:52:18.306Z,33.70
2023-04-27T13:54:45.323Z,33.60
2023-04-27T13:57:12.169Z,33.80
2023-04-27T13:59:39.167Z,33.70
2023-04-27T14:02:06.039Z,33.70
2023-04-27T14:04:33.366Z,34.00
2023-04-27T14:07:00.298Z,34.10
2023-04-27T14:09:27.354Z,34.20
2023-04-27T14:11:57.210Z,34.10
2023-04-27T14:14:24.780Z,33.90
2023-04-27T14:16:53.579Z,33.70
2023-04-27T14:19:21.084Z,33.40
2023-04-27T14:21:52.376Z,32.90
2023-04-27T14:24:19.825Z,32.10
2023-04-27T14:26:47.679Z,32.30
2023-04-27T14:29:15.564Z,33.30
2023-04-27T14:31:43.015Z,31.70
2023-04-27T14:34:10.975Z,31.30
2023-04-27T14:36:38.011Z,30.70
2023-04-27T14:39:06.817Z,28.90
2023-04-27T14:41:33.952Z,30.00
2023-04-27T14:44:01.098Z,29.80
2023-04-27T14:46:28.746Z,29.60
2023-04-27T14:48:56.217Z,29.40
2023-04-27T14:51:23.270Z,29.00
2023-04-27T14:53:50.220Z,28.50
2023-04-27T14:56:17.113Z,28.10
2023-04-27T14:58:44.617Z,27.90
2023-04-27T15:01:11.699Z,27.60
2023-04-27T15:03:38.724Z,27.40
2023-04-27T15:06:06.853Z,27.00
2023-04-27T15:08:34.509Z,26.90
2023-04-27T15:11:03.872Z,26.80
2023-04-27T15:13:31.197Z,26.80
2023-04-27T15:15:59.421Z,26.70
2023-04-27T15:18:26.796Z,26.60
2023-04-27T15:20:54.863Z,26.60
2023-04-27T15:23:22.757Z,26.90
2023-04-27T15:25:52.058Z,27.10
2023-04-27T15:28:19.168Z,27.10
2023-04-27T15:30:46.546Z,26.90
2023-04-27T15:33:15.023Z,27.00
2023-04-27T15:35:42.125Z,27.10
2023-04-27T15:38:12.293Z,27.30
2023-04-27T15:40:39.986Z,27.20
2023-04-27T15:43:07.021Z,27.40
2023-04-27T15:45:34.337Z,27.70
2023-04-27T15:48:01.534Z,27.60
2023-04-27T15:50:28.958Z,27.30
2023-04-27T15:52:56.337Z,26.80
2023-04-27T15:55:23.393Z,26.30
2023-04-27T15:57:50.919Z,25.90
2023-04-27T16:00:22.051Z,25.80
2023-04-27T16:02:49.499Z,25.70
2023-04-27T16:05:17.077Z,25.90
2023-04-27T16:07:44.960Z,26.10
2023-04-27T16:10:12.991Z,26.70
2023-04-27T16:12:40.172Z,26.60
2023-04-27T16:15:10.759Z,26.60
2023-04-27T16:17:38.383Z,26.30
2023-04-27T16:20:06.847Z,26.20
2023-04-27T16:22:34.751Z,26.20
2023-04-27T16:25:02.235Z,26.40
2023-04-27T16:27:30.053Z,26.40
2023-04-27T16:29:57.043Z,26.40
2023-04-27T16:32:24.151Z,26.90
2023-04-27T16:34:51.226Z,26.10
2023-04-27T16:37:18.187Z,26.00
2023-04-27T16:39:45.466Z,25.70
2023-04-27T16:42:18.497Z,25.30
2023-04-27T16:44:45.784Z,25.10
2023-04-27T16:47:12.972Z,25.10
2023-04-27T16:49:39.840Z,25.60
2023-04-27T16:52:07.101Z,25.80
2023-04-27T16:54:34.046Z,26.00
2023-04-27T16:57:01.811Z,26.10
2023-04-27T16:59:28.761Z,26.40
2023-04-27T17:01:56.119Z,26.20
2023-04-27T17:04:23.371Z,25.90
2023-04-27T17:06:50.499Z,25.70
2023-04-27T17:09:17.780Z,25.30
2023-04-27T17:11:44.874Z,25.10
2023-04-27T17:14:11.864Z,24.80
2023-04-27T17:16:39.010Z,24.60
2023-04-27T17:19:06.082Z,24.50
2023-04-27T17:21:33.463Z,24.50
2023-04-27T17:24:00.540Z,24.70
2023-04-27T17:26:27.605Z,24.90
2023-04-27T17:28:59.943Z,25.20
2023-04-27T17:31:27.335Z,25.20
2023-04-27T17:33:54.446Z,27.40
2023-04-27T17:36:21.418Z,25.20
2023-04-27T17:38:48.887Z,25.30
2023-04-27T17:41:15.892Z,25.60
2023-04-27T17:43:42.743Z,26.10
2023-04-27T17:46:10.146Z,26.60
2023-04-27T17:48:37.966Z,26.60
2023-04-27T17:51:04.872Z,26.80
2023-04-27T17:53:31.823Z,26.70
2023-04-27T17:55:58.760Z,26.70
2023-04-27T17:58:25.900Z,27.00
2023-04-27T18:00:52.971Z,27.20
2023-04-27T18:03:20.209Z,27.60
2023-04-27T18:05:47.591Z,27.80
2023-04-27T18:08:14.900Z,28.00
2023-04-27T18:10:41.876Z,28.00
2023-04-27T18:13:08.784Z,28.10
2023-04-27T18:15:35.823Z,28.40
2023-04-27T18:18:02.758Z,28.40
2023-04-27T18:20:31.054Z,28.70
2023-04-27T18:25:25.570Z,29.10
2023-04-27T18:30:22.997Z,29.80
2023-04-27T18:32:49.912Z,30.10
2023-04-27T18:35:16.882Z,30.60
2023-04-27T18:37:48.213Z,30.70
2023-04-27T18:40:20.270Z,31.00
2023-04-27T18:42:47.652Z,31.40
2023-04-27T18:50:10.346Z,32.50
2023-04-27T18:55:06.499Z,32.90
2023-04-27T18:57:33.705Z,33.10
2023-04-27T19:00:00.999Z,33.40
2023-04-27T19:02:28.451Z,33.60
2023-04-27T19:15:03.489Z,35.00
2023-04-27T19:19:58.675Z,35.90
2023-04-27T19:22:27.253Z,36.10
2023-04-27T19:24:54.312Z,36.40
2023-04-27T19:27:21.533Z,36.50
2023-04-27T19:29:51.410Z,36.80
2023-04-27T19:32:19.575Z,37.30
2023-04-27T19:34:47.187Z,37.50
2023-04-27T19:37:14.459Z,37.50
2023-04-27T19:39:41.969Z,37.60
2023-04-27T19:42:09.604Z,37.70
2023-04-27T19:44:36.853Z,37.90
2023-04-27T19:47:03.926Z,38.10
2023-04-27T19:49:32.861Z,38.30
2023-04-27T19:52:00.610Z,38.50
2023-04-27T19:54:27.912Z,38.50
2023-04-27T19:56:55.839Z,38.70
2023-04-27T19:59:23.286Z,38.70
2023-04-27T20:01:50.509Z,38.80
2023-04-27T20:06:46.377Z,39.00
2023-04-27T20:11:40.919Z,39.20
2023-04-27T20:14:07.745Z,39.30
2023-04-27T20:21:29.600Z,39.70
2023-04-27T20:23:56.666Z,39.90
2023-04-27T20:31:21.498Z,40.40
2023-04-27T20:33:48.791Z,40.60
2023-04-27T20:38:46.263Z,41.00
2023-04-27T20:41:13.761Z,41.10
2023-04-27T20:43:40.992Z,41.20
2023-04-27T20:46:10.116Z,41.40
2023-04-27T20:48:37.576Z,41.40
2023-04-27T20:51:05.029Z,41.60
2023-04-27T20:55:59.373Z,42.00
2023-04-27T20:58:26.518Z,41.90
2023-04-27T21:05:49.368Z,41.60
2023-04-27T21:08:17.080Z,41.60
2023-04-27T21:10:44.650Z,41.70
2023-04-27T21:15:38.905Z,41.80
2023-04-27T21:18:07.909Z,42.10
2023-04-27T21:20:36.929Z,42.30
2023-04-27T21:23:03.739Z,42.40
2023-04-27T21:25:31.203Z,42.50
2023-04-27T21:27:58.059Z,42.60
2023-04-27T21:32:52.547Z,42.70
2023-04-27T21:37:46.725Z,43.20
2023-04-27T21:42:40.968Z,43.20
2023-04-27T21:45:08.484Z,43.20
2023-04-27T21:47:35.660Z,43.50
2023-04-27T21:54:58.006Z,43.50
2023-04-27T21:59:52.150Z,43.50
2023-04-27T22:14:38.363Z,43.90
2023-04-27T22:21:59.862Z,44.20
2023-04-27T22:26:53.963Z,44.50
2023-04-27T22:34:16.050Z,44.20
2023-04-27T22:58:50.067Z,45.00
2023-04-27T23:03:44.723Z,45.00
2023-04-27T23:06:14.613Z,45.10
2023-04-27T23:28:26.774Z,45.80
2023-04-27T23:30:54.802Z,46.10
2023-04-27T23:33:22.108Z,46.10
2023-04-27T23:40:44.162Z,46.30
2023-04-27T23:43:11.809Z,46.10
2023-04-27T23:45:38.752Z,46.00
2023-04-27T23:48:06.464Z,46.00
